Airfield :
LOGIN :

Register | Disclaimer

   EN    FR    IT 

 










Legend :    VFR   Marginal VFR   IFR   Intensive IFR   Very Intensive IFR
Visi :
Ceiling :
>= 8 km
>= 3000ft
5 to 8 km
1000 to 3000 ft
1500m to 5 km
500 to 1000 ft
800 to 1500m
200 to 500 ft
< 800m
< 200 ft
Symbols :   Thunderstorms  Fog  Heavy snow  Heavy precipitations  Wind > 20 kt
SIGMETs :     Misc.  Thunderstorms  Icing  Turbulence  Mountain Waves  Volcanic Ashes






- Airport Elevation : 74 ft
- IATA code : LRH


LFBH - La Rochelle Ile de Ré

CURRENT METAR :
  • 170430Z AUTO 09003KT 5000 BR NSC 02/01 Q1009 TEMPO 0400 FG VV///

EXPIRED METARs :
  • 170400Z AUTO 09003KT CAVOK 04/04 Q1009 TEMPO 0400 FG VV///
  • 170330Z AUTO 09002KT 6000 NSC 04/03 Q1009 TEMPO 0400 FG VV///
  • 170300Z AUTO 00000KT 3300 BR NSC 03/02 Q1009 TEMPO 0400 FG VV///
  • 170230Z AUTO 06003KT 7000 NSC 04/03 Q1009 TEMPO 0400 FG VV///
  • 170200Z AUTO 04003KT 7000 NSC 03/02 Q1009 TEMPO 0400 FG VV///
  • 170130Z AUTO 04003KT 7000 NSC 04/02 Q1009 TEMPO 0400 FG VV///

TAF TAF LFBH
Valid from the 17 at 00:00 until the 18 at 00:00 UTC


162300Z 1700/1724 02004KT 8000 BKN025
PROB40 1700/1710 3000 BR
PROB40
TEMPO 1700/1709 0400 FG VV///
PROB40 1710/1714 OVC005
TEMPO 1722/1724 3000 BR
ATIS : +33 5 46 00 13 92



MET'MAP, your aeronautical weather chart ! - Copyright ORBIFLY December 2007 - Disclaimer

ORBIFLY MET'MAP TEAM :

Programming & Development : Alexandra Zaïnal
Concept & Development : Baudouin d'Aumeries
Co-Development & Prog : Marc-Olivier Méhu
Technical & hardware support : Manuel Goepfert

Contact : metmap@orbifly.com




SOURCES & CREDITS :

   NOAA